Time;durP1;ratioP1;P1;durP2;ratioP2;P2;SDS_P1;SDS_P2;PMS_P1;PMS_P2;Temp;Humidity;BMP_temperature;BMP_pressure;BME280_temperature;BME280_humidity;BME280_pressure;Samples;Min_cycle;Max_cycle;Signal;HPM_P1;HPM_P2
2022/06/07 00:02:15;;;;;;;11.68;7.22;;;12.40;99.90;;;;;;4991633;28;20049;-42
2022/06/07 00:04:41;;;;;;;15.02;7.43;;;12.40;99.90;;;;;;4990794;28;20086;-41
2022/06/07 00:07:08;;;;;;;13.63;7.20;;;12.40;99.90;;;;;;4989286;28;21404;-41
2022/06/07 00:09:34;;;;;;;12.57;6.68;;;12.40;99.90;;;;;;4990270;28;20115;-44
2022/06/07 00:12:00;;;;;;;12.82;7.25;;;12.50;99.90;;;;;;4998572;28;20050;-44
2022/06/07 00:14:26;;;;;;;11.50;7.10;;;12.40;99.90;;;;;;4981387;28;20077;-41
2022/06/07 00:16:54;;;;;;;15.50;6.70;;;12.50;99.90;;;;;;4991000;28;20116;-44
2022/06/07 00:19:20;;;;;;;11.98;7.35;;;12.50;99.90;;;;;;4992295;28;20153;-42
2022/06/07 00:21:46;;;;;;;15.35;7.25;;;12.50;99.90;;;;;;4991768;28;20054;-43
2022/06/07 00:24:13;;;;;;;11.93;7.22;;;12.50;99.90;;;;;;4992109;28;20103;-42
2022/06/07 00:26:39;;;;;;;13.23;6.97;;;12.50;99.90;;;;;;4990274;28;20130;-42
2022/06/07 00:29:08;;;;;;;13.50;8.00;;;12.50;99.90;;;;;;4990006;28;20176;-42
2022/06/07 00:31:36;;;;;;;11.23;7.80;;;12.50;99.90;;;;;;4991970;28;20042;-42
2022/06/07 00:34:04;;;;;;;11.90;7.20;;;12.50;99.90;;;;;;4990775;28;20077;-44
2022/06/07 00:36:29;;;;;;;15.63;8.70;;;12.50;99.90;;;;;;4989911;28;20156;-44
2022/06/07 00:38:55;;;;;;;12.68;7.78;;;12.50;99.90;;;;;;4987334;28;20151;-43
2022/06/07 00:41:21;;;;;;;15.52;7.63;;;12.50;99.90;;;;;;4989834;28;20050;-43
2022/06/07 00:44:20;;;;;;;11.05;7.13;;;12.50;99.90;;;;;;4984832;28;20221;-43
2022/06/07 00:46:53;;;;;;;16.08;7.88;;;12.50;99.90;;;;;;4960371;28;20043;-45
2022/06/07 00:49:21;;;;;;;11.82;7.90;;;12.50;99.90;;;;;;4994359;28;20034;-43
2022/06/07 00:51:47;;;;;;;11.30;7.30;;;12.50;99.90;;;;;;4990899;28;20030;-43
2022/06/07 00:54:28;;;;;;;15.23;8.35;;;12.60;99.90;;;;;;4990274;28;20042;-46
2022/06/07 00:56:55;;;;;;;12.95;7.28;;;12.60;99.90;;;;;;4990711;28;20074;-42
2022/06/07 00:59:22;;;;;;;12.45;7.38;;;12.60;99.90;;;;;;4989904;28;20570;-44
2022/06/07 01:01:47;;;;;;;14.20;7.20;;;12.60;99.90;;;;;;4991165;28;20054;-44
2022/06/07 01:04:13;;;;;;;15.32;7.43;;;12.60;99.90;;;;;;4989564;28;20104;-43
2022/06/07 01:12:07;;;;;;;11.88;7.00;;;12.60;99.90;;;;;;4986053;28;20069;-42
2022/06/07 01:14:33;;;;;;;10.70;6.28;;;12.60;99.90;;;;;;4987918;28;20484;-44
2022/06/07 01:16:59;;;;;;;12.07;6.35;;;12.70;99.90;;;;;;4983843;28;20049;-47
2022/06/07 01:19:27;;;;;;;10.90;5.97;;;12.70;99.90;;;;;;4987132;28;20042;-40
2022/06/07 01:21:52;;;;;;;10.48;6.50;;;12.70;99.90;;;;;;4986167;28;20486;-45
2022/06/07 01:24:18;;;;;;;10.85;6.32;;;12.70;99.90;;;;;;4989328;28;20034;-41
2022/06/07 01:26:44;;;;;;;11.48;6.50;;;12.70;99.90;;;;;;4989582;28;20468;-41
2022/06/07 01:29:11;;;;;;;10.63;6.43;;;12.70;99.90;;;;;;4987792;28;20074;-43
2022/06/07 01:31:38;;;;;;;11.38;6.20;;;12.70;99.90;;;;;;4989481;28;20855;-42
2022/06/07 01:34:04;;;;;;;11.27;6.38;;;12.70;99.90;;;;;;4988837;28;20042;-43
2022/06/07 01:36:31;;;;;;;16.20;6.82;;;12.70;99.90;;;;;;4988296;28;20042;-43
2022/06/07 01:41:56;;;;;;;12.52;6.40;;;12.70;99.90;;;;;;4983125;28;20617;-44
2022/06/07 01:44:23;;;;;;;12.93;6.47;;;12.70;99.90;;;;;;4987811;28;20038;-42
2022/06/07 01:46:49;;;;;;;12.73;6.80;;;12.70;99.90;;;;;;4990232;28;20039;-41
2022/06/07 01:49:16;;;;;;;13.23;5.80;;;12.70;99.90;;;;;;4992013;28;20038;-41
2022/06/07 01:51:42;;;;;;;13.27;6.10;;;12.70;99.90;;;;;;4987977;28;20050;-41
2022/06/07 01:54:08;;;;;;;9.80;6.10;;;12.70;99.90;;;;;;4991885;28;20472;-42
2022/06/07 01:56:35;;;;;;;14.77;6.22;;;12.70;99.90;;;;;;4987321;28;20390;-43
2022/06/07 01:59:01;;;;;;;11.60;5.80;;;12.70;99.90;;;;;;4989646;28;20047;-42
2022/06/07 02:01:26;;;;;;;10.90;5.82;;;12.70;99.90;;;;;;4988630;28;20057;-40
2022/06/07 02:03:52;;;;;;;10.95;6.15;;;12.70;99.90;;;;;;4987522;28;20062;-41
2022/06/07 02:06:18;;;;;;;11.65;6.88;;;12.70;99.90;;;;;;4988762;28;20038;-43
2022/06/07 02:08:43;;;;;;;10.00;5.85;;;12.70;99.90;;;;;;4989223;28;20035;-43
2022/06/07 02:11:15;;;;;;;10.20;6.18;;;12.70;99.90;;;;;;4997271;28;20180;-41
2022/06/07 02:13:42;;;;;;;11.10;6.13;;;12.70;99.90;;;;;;4987062;28;20062;-41
2022/06/07 02:16:08;;;;;;;11.85;6.68;;;12.70;99.90;;;;;;4993725;28;20117;-44
2022/06/07 02:18:35;;;;;;;12.88;6.55;;;12.70;99.90;;;;;;4988729;28;20094;-41
2022/06/07 02:21:01;;;;;;;11.65;6.18;;;12.70;99.90;;;;;;4992994;28;20046;-49
2022/06/07 02:23:31;;;;;;;11.90;6.72;;;12.70;99.90;;;;;;4985750;28;20078;-41
2022/06/07 02:26:08;;;;;;;10.98;5.75;;;12.70;99.90;;;;;;4990186;28;20133;-44
2022/06/07 02:28:38;;;;;;;10.63;5.90;;;12.70;99.90;;;;;;4990266;28;20512;-42
2022/06/07 02:31:04;;;;;;;10.38;5.65;;;12.70;99.90;;;;;;4987936;28;20496;-42
2022/06/07 02:33:33;;;;;;;9.80;6.18;;;12.70;99.90;;;;;;4987863;28;20121;-43
2022/06/07 02:35:58;;;;;;;9.60;6.13;;;12.70;99.90;;;;;;4989976;28;20483;-42
2022/06/07 02:38:24;;;;;;;12.00;5.65;;;12.70;99.90;;;;;;4986093;28;20070;-45
2022/06/07 02:40:52;;;;;;;12.55;6.50;;;12.70;99.90;;;;;;4987977;28;20077;-42
2022/06/07 02:43:19;;;;;;;12.15;6.20;;;12.70;99.90;;;;;;4985322;28;20112;-42
2022/06/07 02:45:44;;;;;;;11.35;6.30;;;12.70;99.90;;;;;;4986350;28;20113;-42
2022/06/07 02:48:10;;;;;;;11.15;6.32;;;12.70;99.90;;;;;;4988536;28;20572;-42
2022/06/07 02:50:36;;;;;;;10.82;6.03;;;12.70;99.90;;;;;;4990802;28;20046;-43
2022/06/07 02:53:02;;;;;;;15.02;6.07;;;12.70;99.90;;;;;;4990487;28;20408;-41
2022/06/07 02:55:28;;;;;;;10.02;5.78;;;12.70;99.90;;;;;;4992840;28;20463;-42
2022/06/07 02:57:54;;;;;;;11.75;6.03;;;12.70;99.90;;;;;;4990687;28;20067;-42
2022/06/07 03:00:20;;;;;;;9.38;5.75;;;12.70;99.90;;;;;;4990424;28;20084;-39
2022/06/07 03:02:47;;;;;;;11.75;7.00;;;12.70;99.90;;;;;;4990494;28;20096;-41
2022/06/07 03:05:13;;;;;;;12.50;6.00;;;12.70;99.90;;;;;;4993737;28;20049;-42
2022/06/07 03:07:40;;;;;;;14.95;5.93;;;12.60;99.90;;;;;;4992319;28;20030;-43
2022/06/07 03:10:07;;;;;;;11.20;6.60;;;12.70;99.90;;;;;;4992032;28;20185;-42
2022/06/07 03:12:33;;;;;;;12.50;6.28;;;12.70;99.90;;;;;;4987937;28;20568;-42
2022/06/07 03:14:59;;;;;;;10.68;6.43;;;12.70;99.90;;;;;;4991413;28;20165;-43
2022/06/07 03:17:25;;;;;;;11.80;5.40;;;12.70;99.90;;;;;;4988576;28;20104;-45
2022/06/07 03:19:52;;;;;;;11.27;6.65;;;12.70;99.90;;;;;;4991065;28;20060;-40
2022/06/07 03:22:19;;;;;;;11.25;5.72;;;12.60;99.90;;;;;;4992912;28;20065;-41
2022/06/07 03:24:45;;;;;;;11.23;5.90;;;12.60;99.90;;;;;;4989909;28;20042;-42
2022/06/07 03:27:12;;;;;;;11.40;6.10;;;12.60;99.90;;;;;;4990825;28;20042;-46
2022/06/07 03:29:38;;;;;;;11.25;6.43;;;12.60;99.90;;;;;;4987233;28;20484;-43
2022/06/07 03:32:06;;;;;;;11.30;6.55;;;12.60;99.90;;;;;;4988380;28;20038;-40
2022/06/07 03:34:33;;;;;;;12.15;6.53;;;12.60;99.90;;;;;;4987852;28;20133;-41
2022/06/07 03:36:59;;;;;;;12.98;6.25;;;12.60;99.90;;;;;;4986273;28;20156;-43
2022/06/07 03:39:25;;;;;;;12.15;5.82;;;12.60;99.90;;;;;;4990186;28;20084;-44
2022/06/07 03:41:51;;;;;;;11.43;6.30;;;12.60;99.90;;;;;;4988182;28;20092;-45
2022/06/07 03:44:16;;;;;;;10.38;5.97;;;12.60;99.90;;;;;;4990973;28;20113;-43
2022/06/07 03:46:44;;;;;;;9.60;5.93;;;12.60;99.90;;;;;;4987731;28;20463;-42
2022/06/07 03:49:10;;;;;;;11.95;6.07;;;12.60;99.90;;;;;;4992044;28;20077;-42
2022/06/07 03:51:37;;;;;;;9.63;5.57;;;12.60;99.90;;;;;;4992562;28;20065;-42
2022/06/07 03:54:04;;;;;;;11.63;6.78;;;12.60;99.90;;;;;;4990849;28;20562;-42
2022/06/07 03:56:30;;;;;;;13.88;6.88;;;12.60;99.90;;;;;;4992020;28;20526;-41
2022/06/07 03:58:56;;;;;;;10.85;6.05;;;12.50;99.90;;;;;;4990399;28;20509;-41
2022/06/07 04:01:23;;;;;;;10.90;5.88;;;12.60;99.90;;;;;;4990320;28;20056;-41
2022/06/07 04:03:51;;;;;;;12.20;6.53;;;12.60;99.90;;;;;;4986895;28;20437;-43
2022/06/07 04:06:30;;;;;;;10.73;6.45;;;12.60;99.90;;;;;;4987452;28;20078;-42
2022/06/07 04:08:59;;;;;;;11.55;6.05;;;12.60;99.90;;;;;;4989270;28;21815;-47
2022/06/07 04:11:27;;;;;;;14.48;6.45;;;12.50;99.90;;;;;;4986975;28;20042;-43
2022/06/07 04:13:54;;;;;;;11.15;5.85;;;12.60;99.90;;;;;;4988753;28;20145;-46
2022/06/07 04:16:22;;;;;;;12.60;6.63;;;12.50;99.90;;;;;;4990419;28;20157;-41
2022/06/07 04:18:48;;;;;;;11.05;6.07;;;12.60;99.90;;;;;;4991050;28;20038;-41
2022/06/07 04:21:15;;;;;;;10.82;6.80;;;12.60;99.90;;;;;;4990863;28;20484;-43
2022/06/07 04:23:41;;;;;;;11.70;7.13;;;12.60;99.90;;;;;;4991663;28;20034;-42
2022/06/07 04:26:17;;;;;;;12.93;7.25;;;12.60;99.90;;;;;;4986665;28;20491;-42
2022/06/07 04:28:43;;;;;;;10.20;6.50;;;12.60;99.90;;;;;;4992168;28;20093;-43
2022/06/07 04:31:10;;;;;;;20.73;6.25;;;12.60;99.90;;;;;;4989671;28;20043;-44
2022/06/07 04:33:36;;;;;;;12.40;6.95;;;12.70;99.90;;;;;;4988654;28;20049;-43
2022/06/07 04:36:03;;;;;;;13.48;7.13;;;12.70;99.90;;;;;;4988833;28;20503;-42
2022/06/07 04:38:29;;;;;;;12.88;7.40;;;12.70;99.90;;;;;;4986004;28;20146;-45
2022/06/07 04:40:55;;;;;;;11.85;7.10;;;12.70;99.90;;;;;;4988733;28;20474;-43
2022/06/07 04:43:21;;;;;;;11.65;7.03;;;12.70;99.90;;;;;;4989742;28;20089;-43
2022/06/07 04:45:48;;;;;;;12.65;6.72;;;12.80;99.90;;;;;;4990794;28;20030;-40
2022/06/07 04:48:13;;;;;;;11.02;6.70;;;12.80;99.90;;;;;;4989890;28;20109;-41
2022/06/07 04:50:39;;;;;;;14.25;7.05;;;12.80;99.90;;;;;;4989250;28;20134;-42
2022/06/07 04:53:05;;;;;;;12.25;7.18;;;12.80;99.90;;;;;;4989467;28;20096;-42
2022/06/07 04:55:30;;;;;;;17.10;7.10;;;12.90;99.90;;;;;;4998079;28;20042;-41
2022/06/07 04:57:56;;;;;;;14.35;7.10;;;12.90;99.90;;;;;;4990614;28;20176;-43
2022/06/07 05:00:22;;;;;;;14.73;7.82;;;12.90;99.90;;;;;;4991011;28;20490;-40
2022/06/07 05:02:48;;;;;;;15.77;7.15;;;12.90;99.90;;;;;;4985317;28;20047;-40
2022/06/07 05:05:15;;;;;;;13.85;7.32;;;12.90;99.90;;;;;;4986699;28;20468;-42
2022/06/07 05:07:41;;;;;;;12.52;7.50;;;13.00;99.90;;;;;;4990563;28;20034;-43
2022/06/07 05:10:12;;;;;;;12.20;7.50;;;13.00;99.90;;;;;;4988227;28;20399;-44
2022/06/07 05:12:38;;;;;;;13.48;7.50;;;13.00;99.90;;;;;;4987026;28;20054;-40
2022/06/07 05:15:06;;;;;;;15.63;7.20;;;13.00;99.90;;;;;;4990213;28;20067;-42
2022/06/07 05:17:32;;;;;;;13.43;7.18;;;13.10;99.90;;;;;;4990876;28;20515;-41
2022/06/07 05:19:58;;;;;;;14.18;7.40;;;13.10;99.90;;;;;;4987565;28;20073;-41
2022/06/07 05:22:24;;;;;;;12.05;6.45;;;13.10;99.90;;;;;;4988232;28;20619;-42
2022/06/07 05:24:51;;;;;;;13.40;7.40;;;13.20;99.90;;;;;;4986736;28;20045;-42
2022/06/07 05:27:20;;;;;;;11.25;7.10;;;13.20;99.90;;;;;;4995181;28;20041;-40
2022/06/07 05:29:48;;;;;;;12.35;6.80;;;13.20;99.90;;;;;;4987518;28;20109;-42
2022/06/07 05:32:14;;;;;;;15.98;7.57;;;13.30;99.90;;;;;;5003910;28;20050;-39
2022/06/07 05:34:40;;;;;;;13.85;7.28;;;13.30;99.90;;;;;;5004944;28;20084;-42
2022/06/07 05:37:06;;;;;;;15.88;7.40;;;13.30;99.90;;;;;;4984117;28;20469;-43
2022/06/07 05:39:31;;;;;;;15.57;7.93;;;13.30;99.90;;;;;;4986365;28;20484;-41
2022/06/07 05:41:58;;;;;;;14.05;7.32;;;13.30;99.90;;;;;;4983248;28;20062;-43
2022/06/07 05:44:25;;;;;;;13.98;7.43;;;13.40;99.90;;;;;;4987961;28;20042;-47
2022/06/07 05:46:52;;;;;;;11.70;7.05;;;13.40;99.90;;;;;;4982393;28;20553;-42
2022/06/07 05:49:18;;;;;;;11.73;7.15;;;13.40;99.90;;;;;;4985852;28;20038;-44
2022/06/07 05:51:44;;;;;;;11.30;6.38;;;13.40;99.90;;;;;;4986390;28;20233;-42
2022/06/07 05:54:11;;;;;;;16.00;6.90;;;13.40;99.90;;;;;;4989244;28;20578;-43
2022/06/07 05:56:37;;;;;;;13.45;6.80;;;13.30;99.90;;;;;;4989829;28;20046;-40
2022/06/07 05:59:05;;;;;;;13.55;7.03;;;13.30;99.90;;;;;;4981570;28;20454;-44
2022/06/07 06:01:31;;;;;;;12.57;6.75;;;13.30;99.90;;;;;;4971153;28;20065;-41
2022/06/07 06:03:58;;;;;;;11.77;6.50;;;13.30;99.90;;;;;;4985433;28;20049;-41
2022/06/07 06:06:24;;;;;;;13.02;7.40;;;13.20;99.90;;;;;;4992791;28;20041;-43
2022/06/07 06:11:36;;;;;;;11.00;6.72;;;13.20;99.90;;;;;;4982068;28;20534;-45
2022/06/07 06:14:02;;;;;;;10.52;6.60;;;13.20;99.90;;;;;;4986400;28;20053;-42
2022/06/07 06:16:28;;;;;;;10.32;7.30;;;13.20;99.90;;;;;;4984693;28;20064;-43
2022/06/07 06:18:57;;;;;;;13.15;6.72;;;13.20;99.90;;;;;;4986464;28;20468;-41
2022/06/07 06:21:26;;;;;;;12.27;7.53;;;13.20;99.90;;;;;;4983229;28;20046;-47
2022/06/07 06:23:52;;;;;;;11.02;6.97;;;13.10;99.90;;;;;;4987332;28;20220;-41
2022/06/07 06:26:20;;;;;;;13.02;6.30;;;13.10;99.90;;;;;;4983031;28;20180;-44
2022/06/07 06:28:46;;;;;;;10.35;7.05;;;13.10;99.90;;;;;;4990092;28;20100;-42
2022/06/07 06:31:13;;;;;;;13.40;7.40;;;13.10;99.90;;;;;;4993585;28;20050;-42
2022/06/07 06:33:44;;;;;;;12.93;7.03;;;13.00;99.90;;;;;;4990606;28;20049;-41
2022/06/07 06:36:12;;;;;;;14.25;6.90;;;13.00;99.90;;;;;;4990274;28;20122;-40
2022/06/07 06:38:38;;;;;;;11.60;7.05;;;13.00;99.90;;;;;;4986149;28;20050;-41
2022/06/07 06:41:12;;;;;;;11.50;6.55;;;13.10;99.90;;;;;;4993168;28;20509;-43
2022/06/07 06:43:38;;;;;;;11.95;5.65;;;13.10;99.90;;;;;;4995831;28;20128;-41
2022/06/07 06:46:09;;;;;;;13.75;6.07;;;13.20;99.90;;;;;;4992495;28;20046;-41
2022/06/07 06:48:36;;;;;;;12.65;6.30;;;13.20;99.90;;;;;;4991518;28;20035;-42
2022/06/07 06:51:04;;;;;;;12.38;6.65;;;13.30;99.90;;;;;;4992051;28;20484;-43
2022/06/07 06:53:31;;;;;;;12.48;6.00;;;13.30;99.90;;;;;;4991785;28;20468;-46
2022/06/07 06:55:57;;;;;;;14.63;5.78;;;13.40;99.90;;;;;;4993654;28;20357;-42
2022/06/07 06:58:25;;;;;;;15.00;5.80;;;13.50;99.90;;;;;;4987541;28;20112;-41
2022/06/07 07:01:05;;;;;;;13.05;6.28;;;13.40;99.90;;;;;;4981552;28;20152;-45
2022/06/07 07:03:33;;;;;;;13.48;6.22;;;13.40;99.90;;;;;;4982907;28;20121;-44
2022/06/07 07:06:00;;;;;;;13.27;6.07;;;13.40;99.90;;;;;;4985130;28;20061;-40
2022/06/07 07:08:27;;;;;;;11.35;5.30;;;13.40;99.90;;;;;;4987947;28;20069;-42
2022/06/07 07:11:08;;;;;;;10.70;5.65;;;13.40;99.90;;;;;;4990976;28;20048;-42
2022/06/07 07:13:35;;;;;;;12.60;5.70;;;13.40;99.90;;;;;;4989439;28;20050;-41
2022/06/07 07:16:02;;;;;;;11.00;5.82;;;13.40;99.90;;;;;;4990269;28;20046;-42
2022/06/07 07:18:28;;;;;;;12.85;5.60;;;13.40;99.90;;;;;;4992586;28;20141;-44
2022/06/07 07:20:53;;;;;;;8.07;4.70;;;13.40;99.90;;;;;;4984617;28;20046;-40
2022/06/07 07:23:20;;;;;;;9.50;5.28;;;13.40;99.90;;;;;;4990640;28;20030;-43
2022/06/07 07:25:45;;;;;;;11.10;4.68;;;13.50;99.90;;;;;;4991170;28;20031;-41
2022/06/07 07:28:11;;;;;;;10.93;4.85;;;13.50;99.90;;;;;;4988343;28;20035;-40
2022/06/07 07:30:37;;;;;;;8.65;4.78;;;13.50;99.90;;;;;;4991307;28;20142;-42
2022/06/07 07:33:03;;;;;;;11.18;4.85;;;13.60;99.90;;;;;;4986834;28;20051;-42
2022/06/07 07:35:30;;;;;;;10.35;4.93;;;13.60;99.90;;;;;;4992617;28;20491;-40
2022/06/07 07:37:59;;;;;;;9.00;4.80;;;13.60;99.90;;;;;;4989145;28;20038;-42
2022/06/07 07:40:25;;;;;;;8.57;4.90;;;13.60;99.90;;;;;;4984424;28;20050;-43
2022/06/07 07:42:51;;;;;;;8.57;3.97;;;13.60;99.90;;;;;;4983276;28;20041;-41
2022/06/07 07:45:17;;;;;;;7.93;4.38;;;13.60;99.90;;;;;;4985764;28;20030;-42
2022/06/07 07:47:43;;;;;;;8.75;3.85;;;13.60;99.90;;;;;;4992447;28;20475;-40
2022/06/07 07:50:11;;;;;;;11.23;4.70;;;13.60;99.90;;;;;;4989960;28;20043;-41
2022/06/07 07:52:38;;;;;;;14.20;4.35;;;13.60;99.90;;;;;;4970319;28;20121;-41
2022/06/07 07:55:04;;;;;;;11.07;4.40;;;13.60;99.90;;;;;;4993952;28;20136;-40
2022/06/07 07:57:31;;;;;;;9.88;4.70;;;13.60;99.90;;;;;;4988942;28;20038;-40
2022/06/07 07:59:58;;;;;;;8.30;3.80;;;13.60;99.90;;;;;;4986222;28;20053;-42
2022/06/07 08:02:24;;;;;;;9.52;4.47;;;13.60;99.90;;;;;;4984826;28;20483;-41
2022/06/07 08:04:49;;;;;;;10.43;4.30;;;13.60;99.90;;;;;;4994971;28;20042;-40
2022/06/07 08:07:16;;;;;;;8.02;4.05;;;13.60;99.90;;;;;;4990953;28;20407;-45
2022/06/07 08:09:43;;;;;;;11.40;4.65;;;13.60;99.90;;;;;;4991203;28;20124;-48
2022/06/07 08:12:09;;;;;;;8.63;4.45;;;13.60;99.90;;;;;;4991762;28;20050;-46
2022/06/07 08:14:35;;;;;;;8.73;4.47;;;13.60;99.90;;;;;;4991203;28;20058;-42
2022/06/07 08:17:02;;;;;;;10.90;5.45;;;13.60;99.90;;;;;;4990322;28;20038;-41
2022/06/07 08:19:28;;;;;;;6.93;4.32;;;13.60;99.90;;;;;;4989837;28;20054;-42
2022/06/07 08:21:54;;;;;;;10.45;5.05;;;13.70;99.90;;;;;;4987830;28;20492;-41
2022/06/07 08:24:19;;;;;;;9.88;4.50;;;13.70;99.90;;;;;;4988272;28;20030;-40
2022/06/07 08:26:48;;;;;;;9.88;4.90;;;13.80;99.90;;;;;;4990456;28;20042;-41
2022/06/07 08:29:15;;;;;;;9.35;4.90;;;13.80;99.90;;;;;;4983254;28;20080;-41
2022/06/07 08:31:41;;;;;;;9.07;5.05;;;13.80;99.90;;;;;;4986657;28;20488;-41
2022/06/07 08:39:38;;;;;;;7.35;4.53;;;13.80;99.90;;;;;;4985840;28;20038;-46
2022/06/07 08:42:33;;;;;;;10.20;4.97;;;13.80;99.90;;;;;;4990561;28;20519;-42
2022/06/07 08:45:03;;;;;;;10.30;4.47;;;13.80;99.90;;;;;;4986025;28;20060;-43
2022/06/07 08:47:46;;;;;;;8.38;4.72;;;13.80;99.90;;;;;;4983565;28;20054;-41
2022/06/07 08:50:21;;;;;;;9.82;4.07;;;13.90;99.90;;;;;;4989450;28;20099;-43
2022/06/07 08:53:00;;;;;;;14.75;4.88;;;14.00;99.90;;;;;;4985893;28;20046;-42
2022/06/07 08:55:47;;;;;;;8.65;4.70;;;13.90;99.90;;;;;;4983389;28;20084;-42
2022/06/07 08:58:42;;;;;;;10.95;4.60;;;13.90;99.90;;;;;;4990958;28;20034;-41
2022/06/07 09:01:47;;;;;;;8.38;4.00;;;13.90;99.90;;;;;;4983797;28;20050;-44
2022/06/07 09:04:18;;;;;;;7.18;3.95;;;13.90;99.90;;;;;;4988460;28;20060;-44
2022/06/07 09:06:52;;;;;;;9.50;3.90;;;13.90;99.90;;;;;;4990923;28;20550;-42
2022/06/07 09:09:20;;;;;;;9.02;3.15;;;13.90;99.90;;;;;;4988946;28;20050;-43
2022/06/07 09:12:14;;;;;;;6.82;2.55;;;14.00;99.90;;;;;;4983163;28;20054;-43
2022/06/07 09:14:47;;;;;;;7.35;2.60;;;14.00;99.90;;;;;;4982591;28;20467;-45
2022/06/07 09:17:38;;;;;;;8.02;2.63;;;14.20;99.90;;;;;;4983559;28;20469;-45
2022/06/07 09:20:14;;;;;;;5.47;2.33;;;14.30;99.90;;;;;;4987347;28;20389;-40
2022/06/07 09:22:51;;;;;;;6.28;2.55;;;14.50;99.90;;;;;;4992169;28;20430;-43
2022/06/07 09:25:26;;;;;;;4.72;2.45;;;14.70;99.90;;;;;;4989050;28;20590;-42
2022/06/07 09:27:53;;;;;;;9.10;2.75;;;14.90;99.90;;;;;;4988838;28;20041;-42
2022/06/07 09:30:29;;;;;;;7.90;2.53;;;14.90;99.90;;;;;;4989754;28;20050;-40
2022/06/07 09:32:55;;;;;;;6.55;2.50;;;14.80;99.90;;;;;;4990448;28;20436;-41
2022/06/07 09:35:33;;;;;;;6.50;2.60;;;14.70;99.90;;;;;;4988113;28;20101;-45
2022/06/07 09:38:04;;;;;;;7.55;1.95;;;14.60;99.90;;;;;;4984136;28;20077;-45
2022/06/07 09:40:36;;;;;;;6.05;2.17;;;14.50;99.90;;;;;;4987193;28;20050;-44
2022/06/07 09:43:29;;;;;;;5.80;2.03;;;14.50;99.90;;;;;;4990139;28;20047;-40
2022/06/07 09:46:08;;;;;;;6.88;2.53;;;14.40;99.90;;;;;;4988567;28;20389;-40
2022/06/07 09:48:42;;;;;;;7.18;2.50;;;14.40;99.90;;;;;;4987202;28;20038;-40
2022/06/07 09:51:18;;;;;;;8.55;2.83;;;14.40;99.90;;;;;;4988761;28;20038;-41
2022/06/07 09:53:47;;;;;;;6.93;2.22;;;14.40;99.90;;;;;;4983549;28;20054;-40
2022/06/07 09:56:20;;;;;;;7.00;2.60;;;14.40;99.90;;;;;;4986971;28;20061;-42
2022/06/07 09:58:57;;;;;;;8.38;2.65;;;14.40;99.90;;;;;;4985427;28;20042;-41
2022/06/07 10:01:29;;;;;;;8.40;3.05;;;14.40;99.90;;;;;;4990100;28;20516;-42
2022/06/07 10:04:09;;;;;;;10.27;2.55;;;14.40;99.90;;;;;;4992581;28;20551;-42
2022/06/07 10:06:42;;;;;;;6.57;2.40;;;14.40;99.90;;;;;;4992273;28;20466;-42
2022/06/07 10:09:26;;;;;;;6.57;3.03;;;14.40;99.90;;;;;;4996060;28;20038;-41
2022/06/07 10:12:15;;;;;;;7.70;2.63;;;14.30;99.90;;;;;;4987304;28;20443;-42
2022/06/07 10:14:59;;;;;;;7.55;2.80;;;14.30;99.90;;;;;;4995171;28;20458;-43
2022/06/07 10:17:54;;;;;;;13.10;4.18;;;14.30;99.90;;;;;;4989185;28;20491;-40
2022/06/07 10:20:34;;;;;;;6.43;2.80;;;14.30;99.90;;;;;;4972612;28;20070;-40
2022/06/07 10:23:05;;;;;;;8.18;3.47;;;14.30;99.90;;;;;;4987600;28;20046;-43
2022/06/07 10:25:50;;;;;;;8.93;3.05;;;14.30;99.90;;;;;;4991003;28;20042;-42
2022/06/07 10:28:31;;;;;;;6.63;2.53;;;14.20;99.90;;;;;;4989695;28;20034;-47
2022/06/07 10:31:25;;;;;;;8.15;3.60;;;14.20;99.90;;;;;;4989917;28;20057;-43
2022/06/07 10:34:12;;;;;;;6.35;3.20;;;14.20;99.90;;;;;;4989380;28;20053;-42
2022/06/07 10:37:02;;;;;;;6.88;3.17;;;14.20;99.90;;;;;;4987269;28;20121;-41
2022/06/07 10:39:54;;;;;;;10.20;3.63;;;14.30;99.90;;;;;;4988986;28;20141;-45
2022/06/07 10:42:34;;;;;;;6.50;3.33;;;14.20;99.90;;;;;;4985786;28;20049;-41
2022/06/07 10:45:03;;;;;;;8.45;4.20;;;14.30;99.90;;;;;;4990080;28;20125;-43
2022/06/07 10:47:34;;;;;;;9.00;3.70;;;14.40;99.90;;;;;;4988543;28;20030;-40
2022/06/07 10:50:14;;;;;;;8.23;3.63;;;14.50;99.90;;;;;;4990998;28;20132;-40
2022/06/07 10:53:05;;;;;;;9.75;3.25;;;14.60;99.90;;;;;;4988049;28;20050;-41
2022/06/07 10:55:34;;;;;;;10.95;3.60;;;14.80;99.90;;;;;;4988541;28;20126;-44
2022/06/07 10:58:15;;;;;;;8.50;3.72;;;15.00;99.90;;;;;;4987564;28;20050;-42
2022/06/07 11:00:50;;;;;;;9.68;3.47;;;15.20;99.90;;;;;;4990201;28;20570;-42
2022/06/07 11:03:47;;;;;;;7.80;3.40;;;15.40;99.90;;;;;;4990442;28;20113;-42
2022/06/07 11:09:44;;;;;;;8.93;3.33;;;15.80;99.90;;;;;;4981727;28;20101;-40
2022/06/07 11:12:32;;;;;;;9.90;3.22;;;16.00;99.90;;;;;;4989150;28;20157;-43
2022/06/07 11:15:25;;;;;;;8.77;3.65;;;16.20;99.90;;;;;;4989660;28;20478;-42
2022/06/07 11:18:20;;;;;;;8.77;3.42;;;16.20;99.90;;;;;;4989248;28;20080;-43
2022/06/07 11:20:50;;;;;;;6.93;3.25;;;16.30;99.90;;;;;;4985385;28;20058;-42
2022/06/07 11:23:30;;;;;;;7.20;3.35;;;16.30;99.90;;;;;;4988618;28;20124;-42
2022/06/07 11:26:08;;;;;;;9.82;3.40;;;16.40;99.90;;;;;;4984529;28;20035;-42
2022/06/07 11:28:42;;;;;;;9.02;4.07;;;16.40;99.90;;;;;;4989901;28;20034;-43
2022/06/07 11:31:23;;;;;;;8.07;3.42;;;16.50;99.90;;;;;;4992247;28;20053;-44
2022/06/07 11:33:51;;;;;;;8.68;3.60;;;16.50;99.90;;;;;;4988156;28;20480;-41
2022/06/07 11:36:20;;;;;;;7.43;3.83;;;16.60;99.90;;;;;;4996148;28;20182;-41
2022/06/07 11:38:55;;;;;;;9.35;3.97;;;16.70;99.30;;;;;;4988519;28;20053;-43
2022/06/07 11:41:41;;;;;;;8.52;3.15;;;16.90;99.90;;;;;;4990338;28;20042;-45
2022/06/07 11:44:10;;;;;;;11.75;3.95;;;17.00;99.70;;;;;;4984879;28;20042;-42
2022/06/07 11:46:35;;;;;;;8.75;3.50;;;17.00;99.90;;;;;;4991056;28;20038;-42
2022/06/07 11:49:23;;;;;;;9.32;3.13;;;17.10;99.90;;;;;;4989519;28;20042;-43
2022/06/07 11:51:55;;;;;;;7.18;2.58;;;17.20;99.90;;;;;;4987574;28;20064;-43
2022/06/07 11:54:25;;;;;;;7.32;2.65;;;17.50;99.90;;;;;;4988512;28;20052;-47
2022/06/07 11:56:56;;;;;;;8.43;2.80;;;17.70;99.90;;;;;;4989194;28;20389;-42
2022/06/07 11:59:21;;;;;;;8.40;2.70;;;17.60;99.90;;;;;;4991283;28;20905;-43
2022/06/07 12:02:08;;;;;;;6.78;2.22;;;17.50;99.90;;;;;;4990794;28;20216;-43
2022/06/07 12:04:40;;;;;;;6.68;2.20;;;17.30;99.90;;;;;;4980242;28;20550;-43
2022/06/07 12:07:39;;;;;;;9.65;2.95;;;17.20;99.90;;;;;;4985333;28;20074;-43
2022/06/07 12:10:17;;;;;;;9.35;2.70;;;17.20;99.90;;;;;;4990112;28;20034;-48
2022/06/07 12:12:53;;;;;;;7.57;2.85;;;17.20;99.90;;;;;;4990821;28;20539;-47
2022/06/07 12:15:30;;;;;;;9.77;2.70;;;17.20;99.90;;;;;;4985001;28;20104;-44
2022/06/07 12:18:03;;;;;;;7.78;2.53;;;17.20;99.90;;;;;;4993209;28;20054;-49
2022/06/07 12:20:40;;;;;;;9.10;2.55;;;17.40;99.90;;;;;;4988967;28;20046;-47
2022/06/07 12:23:22;;;;;;;6.97;2.70;;;17.80;99.90;;;;;;4988560;28;20042;-46
2022/06/07 12:26:00;;;;;;;6.93;3.03;;;17.90;99.90;;;;;;4988405;28;20356;-43
2022/06/07 12:28:32;;;;;;;5.70;2.45;;;17.90;99.90;;;;;;4986455;28;20538;-44
2022/06/07 12:31:15;;;;;;;6.30;2.67;;;17.90;99.90;;;;;;4989373;28;20050;-45
2022/06/07 12:33:50;;;;;;;7.10;3.33;;;18.10;99.90;;;;;;4987196;28;20088;-44
2022/06/07 12:36:30;;;;;;;8.02;2.75;;;18.10;99.90;;;;;;4988992;28;20466;-46
2022/06/07 12:39:00;;;;;;;7.95;2.70;;;17.90;99.90;;;;;;4984999;28;20050;-47
2022/06/07 12:41:27;;;;;;;5.65;2.58;;;18.00;99.90;;;;;;4988645;28;20050;-46
2022/06/07 12:43:56;;;;;;;7.53;3.30;;;18.10;99.90;;;;;;4994156;28;20042;-49
2022/06/07 12:46:24;;;;;;;5.57;2.75;;;18.20;99.90;;;;;;4988057;28;20510;-42
2022/06/07 12:48:51;;;;;;;7.40;3.15;;;18.40;99.90;;;;;;4987654;28;20484;-42
2022/06/07 12:51:35;;;;;;;7.63;2.85;;;18.30;99.50;;;;;;4977362;28;20042;-40
2022/06/07 12:54:06;;;;;;;4.90;2.65;;;18.20;99.90;;;;;;4988033;28;20079;-41
2022/06/07 12:56:37;;;;;;;6.68;2.75;;;18.20;99.90;;;;;;4988742;28;20041;-42
2022/06/07 12:59:29;;;;;;;6.03;2.50;;;18.10;99.20;;;;;;4985899;28;20042;-39
2022/06/07 13:01:56;;;;;;;5.40;2.50;;;18.10;99.60;;;;;;4972835;28;20065;-41
2022/06/07 13:04:35;;;;;;;6.65;2.30;;;18.40;99.60;;;;;;4981784;28;20097;-43
2022/06/07 13:07:22;;;;;;;6.30;3.17;;;18.50;99.90;;;;;;4988692;28;20526;-42
2022/06/07 13:09:53;;;;;;;8.30;3.15;;;18.50;98.80;;;;;;4986276;28;20053;-43
2022/06/07 13:12:34;;;;;;;7.55;3.40;;;18.60;98.70;;;;;;4986146;28;20058;-44
2022/06/07 13:15:03;;;;;;;6.45;2.85;;;18.70;96.70;;;;;;4986351;28;20092;-45
2022/06/07 13:17:37;;;;;;;8.82;2.72;;;18.70;95.00;;;;;;4987576;28;20092;-43
2022/06/07 13:20:07;;;;;;;6.70;3.55;;;18.90;96.00;;;;;;4984348;28;20108;-46